createdAt,value
2023-05-22T00:02:10.258Z,97301.00
2023-05-22T00:04:37.584Z,97304.00
2023-05-22T00:07:06.813Z,97297.00
2023-05-22T00:09:34.245Z,97299.00
2023-05-22T00:12:01.619Z,97304.00
2023-05-22T00:14:28.892Z,97307.00
2023-05-22T00:16:57.364Z,97294.00
2023-05-22T00:19:24.747Z,97299.00
2023-05-22T00:21:52.109Z,97292.00
2023-05-22T00:24:20.495Z,97291.00
2023-05-22T00:26:47.945Z,97294.00
2023-05-22T00:29:15.459Z,97294.00
2023-05-22T00:31:42.920Z,97292.00
2023-05-22T00:34:10.404Z,97294.00
2023-05-22T00:36:37.842Z,97295.00
2023-05-22T00:39:05.414Z,97299.00
2023-05-22T00:41:36.251Z,97309.00
2023-05-22T00:44:03.772Z,97291.00
2023-05-22T00:46:31.570Z,97306.00
2023-05-22T00:48:58.960Z,97303.00
2023-05-22T00:51:26.616Z,97300.00
2023-05-22T00:53:54.937Z,97303.00
2023-05-22T00:56:22.578Z,97299.00
2023-05-22T00:58:50.032Z,97293.00
2023-05-22T01:01:18.496Z,97300.00
2023-05-22T01:03:47.274Z,97302.00
2023-05-22T01:06:18.530Z,97298.00
2023-05-22T01:08:46.030Z,97293.00
2023-05-22T01:11:27.407Z,97301.00
2023-05-22T01:14:00.965Z,97298.00
2023-05-22T01:17:24.184Z,97295.00
2023-05-22T01:20:25.589Z,97291.00
2023-05-22T01:23:04.885Z,97293.00
2023-05-22T01:25:50.525Z,97289.00
2023-05-22T01:29:03.862Z,97289.00
2023-05-22T01:31:37.455Z,97286.00
2023-05-22T01:34:10.006Z,97279.00
2023-05-22T01:36:39.366Z,97285.00
2023-05-22T01:39:08.050Z,97282.00
2023-05-22T01:41:36.645Z,97281.00
2023-05-22T01:44:04.362Z,97289.00
2023-05-22T01:46:32.222Z,97294.00
2023-05-22T01:49:00.756Z,97290.00
2023-05-22T01:52:13.501Z,97295.00
2023-05-22T01:54:54.845Z,97298.00
2023-05-22T01:57:53.551Z,97294.00
2023-05-22T02:00:23.358Z,97298.00
2023-05-22T02:03:00.056Z,97296.00
2023-05-22T02:05:32.330Z,97302.00
2023-05-22T02:08:01.735Z,97296.00
2023-05-22T02:10:31.852Z,97302.00
2023-05-22T02:12:59.433Z,97288.00
2023-05-22T02:15:26.889Z,97283.00
2023-05-22T02:17:54.326Z,97283.00
2023-05-22T02:20:21.799Z,97278.00
2023-05-22T02:22:49.368Z,97285.00
2023-05-22T02:25:18.090Z,97283.00
2023-05-22T02:27:48.236Z,97284.00
2023-05-22T02:30:16.652Z,97289.00
2023-05-22T02:32:44.144Z,97274.00
2023-05-22T02:35:11.664Z,97276.00
2023-05-22T02:37:39.996Z,97280.00
2023-05-22T02:40:09.042Z,97280.00
2023-05-22T02:42:37.093Z,97268.00
2023-05-22T02:45:04.904Z,97271.00
2023-05-22T02:47:32.289Z,97267.00
2023-05-22T02:49:59.660Z,97271.00
2023-05-22T02:52:28.809Z,97270.00
2023-05-22T02:54:56.232Z,97284.00
2023-05-22T02:57:23.680Z,97288.00
2023-05-22T02:59:51.775Z,97290.00
2023-05-22T03:02:19.915Z,97295.00
2023-05-22T03:04:47.465Z,97293.00
2023-05-22T03:07:15.211Z,97293.00
2023-05-22T03:09:42.535Z,97304.00
2023-05-22T03:12:10.895Z,97295.00
2023-05-22T03:14:38.164Z,97303.00
2023-05-22T03:17:06.025Z,97294.00
2023-05-22T03:19:33.642Z,97296.00
2023-05-22T03:22:01.192Z,97296.00
2023-05-22T03:24:28.498Z,97293.00
2023-05-22T03:26:55.947Z,97294.00
2023-05-22T03:29:32.197Z,97293.00
2023-05-22T03:32:00.588Z,97295.00
2023-05-22T03:34:27.929Z,97287.00
2023-05-22T03:36:57.602Z,97292.00
2023-05-22T03:39:34.040Z,97295.00
2023-05-22T03:42:01.577Z,97297.00
2023-05-22T03:44:29.096Z,97298.00
2023-05-22T03:46:57.187Z,97291.00
2023-05-22T03:49:24.600Z,97294.00
2023-05-22T03:51:52.648Z,97295.00
2023-05-22T03:54:19.943Z,97293.00
2023-05-22T03:56:47.674Z,97296.00
2023-05-22T03:59:15.039Z,97291.00
2023-05-22T04:01:42.564Z,97298.00
2023-05-22T04:04:10.231Z,97289.00
2023-05-22T04:06:43.551Z,97296.00
2023-05-22T04:09:12.866Z,97291.00
2023-05-22T04:11:40.557Z,97290.00
2023-05-22T04:14:09.184Z,97301.00
2023-05-22T04:16:36.990Z,97298.00
2023-05-22T04:19:05.136Z,97298.00
2023-05-22T04:21:36.340Z,97297.00
2023-05-22T04:24:07.682Z,97301.00
2023-05-22T04:26:36.405Z,97300.00
2023-05-22T04:29:04.836Z,97306.00
2023-05-22T04:31:32.878Z,97308.00
2023-05-22T04:34:00.421Z,97305.00
2023-05-22T04:36:28.278Z,97311.00
2023-05-22T04:38:56.324Z,97310.00
2023-05-22T04:41:26.917Z,97313.00
2023-05-22T04:43:55.255Z,97317.00
2023-05-22T04:46:23.096Z,97315.00
2023-05-22T04:48:51.555Z,97306.00
2023-05-22T04:51:19.128Z,97311.00
2023-05-22T04:53:47.632Z,97319.00
2023-05-22T04:56:21.305Z,97317.00
2023-05-22T04:58:55.971Z,97319.00
2023-05-22T05:01:23.961Z,97313.00
2023-05-22T05:03:51.592Z,97316.00
2023-05-22T05:06:21.789Z,97319.00
2023-05-22T05:08:50.309Z,97325.00
2023-05-22T05:11:17.671Z,97323.00
2023-05-22T05:13:45.293Z,97330.00
2023-05-22T05:16:12.634Z,97324.00
2023-05-22T05:18:40.026Z,97323.00
2023-05-22T05:21:07.448Z,97326.00
2023-05-22T05:23:38.248Z,97323.00
2023-05-22T05:26:05.801Z,97331.00
2023-05-22T05:28:33.373Z,97334.00
2023-05-22T05:31:00.774Z,97327.00
2023-05-22T05:33:28.274Z,97331.00
2023-05-22T05:35:55.769Z,97334.00
2023-05-22T05:38:23.615Z,97332.00
2023-05-22T05:40:51.510Z,97329.00
2023-05-22T05:43:19.669Z,97327.00
2023-05-22T05:45:47.135Z,97325.00
2023-05-22T05:48:14.609Z,97331.00
2023-05-22T05:50:42.210Z,97339.00
2023-05-22T05:53:10.007Z,97340.00
2023-05-22T05:55:38.039Z,97343.00
2023-05-22T05:58:05.759Z,97349.00
2023-05-22T06:00:33.162Z,97350.00
2023-05-22T06:03:00.644Z,97350.00
2023-05-22T06:05:29.617Z,97346.00
2023-05-22T06:07:58.740Z,97342.00
2023-05-22T06:10:26.635Z,97338.00
2023-05-22T06:12:53.963Z,97352.00
2023-05-22T06:15:21.538Z,97343.00
2023-05-22T06:17:48.961Z,97348.00
2023-05-22T06:20:16.411Z,97341.00
2023-05-22T06:22:43.844Z,97346.00
2023-05-22T06:25:11.289Z,97340.00
2023-05-22T06:27:38.910Z,97339.00
2023-05-22T06:30:07.859Z,97339.00
2023-05-22T06:32:35.383Z,97322.00
2023-05-22T06:35:03.740Z,97327.00
2023-05-22T06:37:35.910Z,97334.00
2023-05-22T06:40:04.173Z,97335.00
2023-05-22T06:42:31.586Z,97330.00
2023-05-22T06:44:59.034Z,97337.00
2023-05-22T06:47:27.290Z,97335.00
2023-05-22T06:49:54.757Z,97332.00
2023-05-22T06:52:22.630Z,97341.00
2023-05-22T06:54:49.940Z,97337.00
2023-05-22T06:57:17.403Z,97338.00
2023-05-22T06:59:44.808Z,97339.00
2023-05-22T07:02:12.268Z,97341.00
2023-05-22T07:04:39.542Z,97343.00
2023-05-22T07:07:07.054Z,97340.00
2023-05-22T07:09:35.483Z,97349.00
2023-05-22T07:12:03.194Z,97348.00
2023-05-22T07:14:30.681Z,97344.00
2023-05-22T07:16:58.277Z,97350.00
2023-05-22T07:19:25.864Z,97354.00
2023-05-22T07:21:54.012Z,97347.00
2023-05-22T07:24:21.588Z,97350.00
2023-05-22T07:26:49.672Z,97353.00
2023-05-22T07:29:17.457Z,97353.00
2023-05-22T07:31:44.997Z,97347.00
2023-05-22T07:34:12.378Z,97346.00
2023-05-22T07:36:40.435Z,97348.00
2023-05-22T07:39:09.896Z,97349.00
2023-05-22T07:41:37.756Z,97354.00
2023-05-22T07:44:05.269Z,97354.00
2023-05-22T07:46:32.798Z,97348.00
2023-05-22T07:49:00.604Z,97352.00
2023-05-22T07:51:28.565Z,97346.00
2023-05-22T07:53:56.553Z,97348.00
2023-05-22T07:56:26.108Z,97350.00
2023-05-22T07:58:54.813Z,97340.00
2023-05-22T08:01:23.798Z,97348.00
2023-05-22T08:03:51.661Z,97350.00
2023-05-22T08:06:19.212Z,97344.00
2023-05-22T08:08:46.649Z,97348.00
2023-05-22T08:11:14.005Z,97344.00
2023-05-22T08:13:41.470Z,97341.00
2023-05-22T08:16:08.994Z,97338.00
2023-05-22T08:18:36.424Z,97340.00
2023-05-22T08:21:03.888Z,97331.00
2023-05-22T08:23:31.350Z,97342.00
2023-05-22T08:25:58.770Z,97326.00
2023-05-22T08:28:26.640Z,97336.00
2023-05-22T08:30:55.580Z,97326.00
2023-05-22T08:33:22.984Z,97327.00
2023-05-22T08:35:50.384Z,97338.00
2023-05-22T08:38:18.231Z,97327.00
2023-05-22T08:40:51.822Z,97331.00
2023-05-22T08:43:21.709Z,97332.00
2023-05-22T08:46:06.222Z,97338.00
2023-05-22T08:48:34.065Z,97334.00
2023-05-22T08:51:06.542Z,97327.00
2023-05-22T08:53:37.158Z,97329.00
2023-05-22T08:56:07.352Z,97331.00
2023-05-22T08:58:38.122Z,97333.00
2023-05-22T09:01:07.933Z,97331.00
2023-05-22T09:03:37.385Z,97327.00
2023-05-22T09:06:04.846Z,97323.00
2023-05-22T09:08:32.248Z,97331.00
2023-05-22T09:11:00.187Z,97331.00
2023-05-22T09:13:30.182Z,97330.00
2023-05-22T09:16:10.490Z,97327.00
2023-05-22T09:18:40.039Z,97323.00
2023-05-22T09:21:21.741Z,97324.00
2023-05-22T09:24:01.868Z,97327.00
2023-05-22T09:26:30.019Z,97323.00
2023-05-22T09:29:00.499Z,97327.00
2023-05-22T09:31:30.138Z,97324.00
2023-05-22T09:33:59.790Z,97325.00
2023-05-22T09:36:34.116Z,97326.00
2023-05-22T09:39:04.500Z,97325.00
2023-05-22T09:41:37.763Z,97324.00
2023-05-22T09:44:16.640Z,97330.00
2023-05-22T09:46:48.420Z,97327.00
2023-05-22T09:49:17.337Z,97326.00
2023-05-22T09:51:49.762Z,97324.00
2023-05-22T09:54:20.354Z,97320.00
2023-05-22T09:56:51.445Z,97322.00
2023-05-22T09:59:27.747Z,97315.00
2023-05-22T10:01:55.472Z,97315.00
2023-05-22T10:04:24.550Z,97307.00
2023-05-22T10:06:54.659Z,97315.00
2023-05-22T10:09:26.654Z,97318.00
2023-05-22T10:11:59.691Z,97318.00
2023-05-22T10:14:28.824Z,97320.00
2023-05-22T10:17:02.372Z,97316.00
2023-05-22T10:19:33.222Z,97312.00
2023-05-22T10:22:02.234Z,97313.00
2023-05-22T10:24:30.392Z,97313.00
2023-05-22T10:26:58.500Z,97313.00
2023-05-22T10:29:36.959Z,97315.00
2023-05-22T10:32:36.424Z,97317.00
2023-05-22T10:35:18.251Z,97312.00
2023-05-22T10:37:57.113Z,97308.00
2023-05-22T10:40:33.749Z,97309.00
2023-05-22T10:43:04.214Z,97306.00
2023-05-22T10:45:33.342Z,97299.00
2023-05-22T10:48:09.982Z,97302.00
2023-05-22T10:50:38.697Z,97302.00
2023-05-22T10:53:33.664Z,97293.00
2023-05-22T10:56:19.501Z,97296.00
2023-05-22T10:58:59.857Z,97295.00
2023-05-22T11:01:27.715Z,97294.00
2023-05-22T11:04:05.403Z,97290.00
2023-05-22T11:06:42.709Z,97288.00
2023-05-22T11:09:28.299Z,97290.00
2023-05-22T11:12:20.913Z,97283.00
2023-05-22T11:14:59.510Z,97282.00
2023-05-22T11:17:46.944Z,97276.00
2023-05-22T11:20:22.237Z,97280.00
2023-05-22T11:23:07.477Z,97273.00
2023-05-22T11:25:37.959Z,97268.00
2023-05-22T11:28:07.256Z,97277.00
2023-05-22T11:30:35.543Z,97272.00
2023-05-22T11:33:05.094Z,97274.00
2023-05-22T11:35:32.968Z,97273.00
2023-05-22T11:38:05.033Z,97271.00
2023-05-22T11:40:32.641Z,97263.00
2023-05-22T11:43:00.868Z,97266.00
2023-05-22T11:45:28.273Z,97267.00
2023-05-22T11:47:56.298Z,97264.00
2023-05-22T11:50:40.030Z,97262.00
2023-05-22T11:53:08.831Z,97266.00
2023-05-22T11:55:36.675Z,97258.00
2023-05-22T11:58:04.517Z,97254.00
2023-05-22T12:00:32.751Z,97256.00
2023-05-22T12:03:00.595Z,97253.00
2023-05-22T12:05:28.635Z,97255.00
2023-05-22T12:07:56.692Z,97257.00
2023-05-22T12:10:26.254Z,97256.00
2023-05-22T12:12:55.060Z,97254.00
2023-05-22T12:15:22.866Z,97255.00
2023-05-22T12:17:50.342Z,97248.00
2023-05-22T12:20:18.245Z,97248.00
2023-05-22T12:22:46.542Z,97253.00
2023-05-22T12:25:17.781Z,97244.00
2023-05-22T12:27:46.465Z,97245.00
2023-05-22T12:30:16.158Z,97245.00
2023-05-22T12:32:51.608Z,97242.00
2023-05-22T12:35:19.972Z,97237.00
2023-05-22T12:37:52.378Z,97232.00
2023-05-22T12:40:20.413Z,97236.00
2023-05-22T12:42:48.890Z,97227.00
2023-05-22T12:45:18.203Z,97230.00
2023-05-22T12:47:46.270Z,97221.00
2023-05-22T12:50:14.394Z,97218.00
2023-05-22T12:52:41.707Z,97223.00
2023-05-22T12:55:11.962Z,97229.00
2023-05-22T12:57:39.564Z,97220.00
2023-05-22T13:00:08.564Z,97217.00
2023-05-22T13:02:36.697Z,97219.00
2023-05-22T13:05:04.692Z,97216.00
2023-05-22T13:07:32.569Z,97219.00
2023-05-22T13:10:00.019Z,97218.00
2023-05-22T13:12:31.663Z,97216.00
2023-05-22T13:15:00.829Z,97222.00
2023-05-22T13:17:28.994Z,97215.00
2023-05-22T13:19:58.055Z,97207.00
2023-05-22T13:22:25.969Z,97214.00
2023-05-22T13:24:53.780Z,97206.00
2023-05-22T13:27:21.169Z,97207.00
2023-05-22T13:29:48.688Z,97201.00
2023-05-22T13:32:16.008Z,97197.00
2023-05-22T13:34:43.709Z,97192.00
2023-05-22T13:37:12.033Z,97189.00
2023-05-22T13:39:39.872Z,97189.00
2023-05-22T13:42:07.729Z,97188.00
2023-05-22T13:44:35.273Z,97189.00
2023-05-22T13:47:02.755Z,97183.00
2023-05-22T13:49:30.120Z,97187.00
2023-05-22T13:51:57.642Z,97181.00
2023-05-22T13:54:25.255Z,97183.00
2023-05-22T13:56:52.701Z,97182.00
2023-05-22T13:59:20.212Z,97177.00
2023-05-22T14:01:47.517Z,97178.00
2023-05-22T14:04:14.909Z,97174.00
2023-05-22T14:06:43.491Z,97176.00
2023-05-22T14:09:10.967Z,97177.00
2023-05-22T14:11:38.637Z,97171.00
2023-05-22T14:14:06.116Z,97171.00
2023-05-22T14:16:33.524Z,97173.00
2023-05-22T14:19:02.033Z,97169.00
2023-05-22T14:21:29.724Z,97167.00
2023-05-22T14:23:57.325Z,97165.00
2023-05-22T14:26:24.788Z,97165.00
2023-05-22T14:28:53.122Z,97155.00
2023-05-22T14:31:20.698Z,97163.00
2023-05-22T14:33:49.725Z,97157.00
2023-05-22T14:36:18.214Z,97149.00
2023-05-22T14:38:45.711Z,97151.00
2023-05-22T14:41:14.009Z,97154.00
2023-05-22T14:43:41.521Z,97155.00
2023-05-22T14:46:11.925Z,97157.00
2023-05-22T14:48:39.602Z,97157.00
2023-05-22T14:51:07.117Z,97152.00
2023-05-22T14:53:35.089Z,97150.00
2023-05-22T14:56:02.583Z,97154.00
2023-05-22T14:58:29.932Z,97160.00
2023-05-22T15:00:57.770Z,97154.00
2023-05-22T15:03:25.297Z,97153.00
2023-05-22T15:05:52.988Z,97145.00
2023-05-22T15:08:20.753Z,97145.00
2023-05-22T15:10:48.235Z,97144.00
2023-05-22T15:13:16.595Z,97134.00
2023-05-22T15:15:44.027Z,97138.00
2023-05-22T15:18:12.549Z,97138.00
2023-05-22T15:20:40.684Z,97137.00
2023-05-22T15:23:08.113Z,97131.00
2023-05-22T15:25:36.904Z,97137.00
2023-05-22T15:28:08.336Z,97133.00
2023-05-22T15:30:36.664Z,97132.00
2023-05-22T15:33:04.925Z,97131.00
2023-05-22T15:35:32.818Z,97130.00
2023-05-22T15:38:00.572Z,97133.00
2023-05-22T15:40:27.942Z,97134.00
2023-05-22T15:42:56.220Z,97132.00
2023-05-22T15:45:23.556Z,97137.00
2023-05-22T15:47:51.353Z,97132.00
2023-05-22T15:50:18.875Z,97136.00
2023-05-22T15:52:46.345Z,97134.00
2023-05-22T15:55:13.637Z,97126.00
2023-05-22T15:57:41.442Z,97125.00
2023-05-22T16:00:10.623Z,97120.00
2023-05-22T16:02:38.199Z,97126.00
2023-05-22T16:05:06.667Z,97125.00
2023-05-22T16:07:34.076Z,97125.00
2023-05-22T16:10:02.026Z,97128.00
2023-05-22T16:12:29.525Z,97125.00
2023-05-22T16:15:00.231Z,97130.00
2023-05-22T16:17:28.453Z,97132.00
2023-05-22T16:19:56.169Z,97130.00
2023-05-22T16:22:26.333Z,97140.00
2023-05-22T16:24:57.817Z,97127.00
2023-05-22T16:27:25.425Z,97133.00
2023-05-22T16:29:53.068Z,97130.00
2023-05-22T16:32:23.530Z,97128.00
2023-05-22T16:34:51.028Z,97124.00
2023-05-22T16:37:18.430Z,97127.00
2023-05-22T16:39:48.778Z,97129.00
2023-05-22T16:42:17.811Z,97130.00
2023-05-22T16:44:45.831Z,97137.00
2023-05-22T16:47:13.404Z,97131.00
2023-05-22T16:49:41.409Z,97133.00
2023-05-22T16:52:08.708Z,97140.00
2023-05-22T16:54:37.162Z,97140.00
2023-05-22T16:57:06.440Z,97129.00
2023-05-22T16:59:34.172Z,97135.00
2023-05-22T17:02:01.621Z,97134.00
2023-05-22T17:04:29.005Z,97130.00
2023-05-22T17:06:56.736Z,97131.00
2023-05-22T17:09:24.481Z,97124.00
2023-05-22T17:11:51.827Z,97131.00
2023-05-22T17:14:21.870Z,97128.00
2023-05-22T17:16:50.311Z,97126.00
2023-05-22T17:19:18.726Z,97132.00
2023-05-22T17:21:46.372Z,97129.00
2023-05-22T17:24:14.796Z,97131.00
2023-05-22T17:26:43.109Z,97145.00
2023-05-22T17:29:11.377Z,97138.00
2023-05-22T17:31:39.624Z,97143.00
2023-05-22T17:34:07.313Z,97135.00
2023-05-22T17:36:34.687Z,97135.00
2023-05-22T17:39:02.674Z,97135.00
2023-05-22T17:41:31.527Z,97137.00
2023-05-22T17:44:01.421Z,97137.00
2023-05-22T17:46:28.884Z,97141.00
2023-05-22T17:49:40.195Z,97143.00
2023-05-22T17:52:08.914Z,97144.00
2023-05-22T17:54:36.730Z,97141.00
2023-05-22T17:57:04.354Z,97142.00
2023-05-22T17:59:33.361Z,97139.00
2023-05-22T18:02:01.047Z,97146.00
2023-05-22T18:04:28.654Z,97153.00
2023-05-22T18:06:56.176Z,97144.00
2023-05-22T18:09:23.452Z,97139.00
2023-05-22T18:11:53.590Z,97142.00
2023-05-22T18:14:21.455Z,97135.00
2023-05-22T18:16:49.229Z,97141.00
2023-05-22T18:19:16.695Z,97140.00
2023-05-22T18:21:44.813Z,97142.00
2023-05-22T18:24:15.453Z,97140.00
2023-05-22T18:26:42.834Z,97137.00
2023-05-22T18:29:10.824Z,97133.00
2023-05-22T18:31:38.291Z,97133.00
2023-05-22T18:34:05.696Z,97131.00
2023-05-22T18:36:34.277Z,97126.00
2023-05-22T18:39:01.817Z,97129.00
2023-05-22T18:41:29.217Z,97132.00
2023-05-22T18:43:57.367Z,97137.00
2023-05-22T18:46:24.906Z,97130.00
2023-05-22T18:48:52.469Z,97135.00
2023-05-22T18:51:23.522Z,97135.00
2023-05-22T18:53:52.016Z,97135.00
2023-05-22T18:56:19.465Z,97135.00
2023-05-22T18:58:46.977Z,97136.00
2023-05-22T19:01:14.291Z,97141.00
2023-05-22T19:03:42.072Z,97144.00
2023-05-22T19:06:09.489Z,97145.00
2023-05-22T19:08:36.866Z,97149.00
2023-05-22T19:11:04.398Z,97155.00
2023-05-22T19:13:31.952Z,97159.00
2023-05-22T19:15:59.673Z,97164.00
2023-05-22T19:18:28.753Z,97162.00
2023-05-22T19:20:56.967Z,97164.00
2023-05-22T19:23:24.610Z,97168.00
2023-05-22T19:25:52.628Z,97171.00
2023-05-22T19:28:20.004Z,97170.00
2023-05-22T19:30:47.437Z,97178.00
2023-05-22T19:33:16.437Z,97179.00
2023-05-22T19:35:44.974Z,97179.00
2023-05-22T19:38:12.529Z,97180.00
2023-05-22T19:40:41.093Z,97192.00
2023-05-22T19:43:08.727Z,97198.00
2023-05-22T19:45:36.189Z,97197.00
2023-05-22T19:48:03.898Z,97196.00
2023-05-22T19:50:31.352Z,97199.00
2023-05-22T19:52:59.473Z,97205.00
2023-05-22T19:55:26.928Z,97205.00
2023-05-22T19:57:54.395Z,97211.00
2023-05-22T20:00:22.072Z,97206.00
2023-05-22T20:02:50.363Z,97208.00
2023-05-22T20:05:17.804Z,97218.00
2023-05-22T20:07:47.166Z,97215.00
2023-05-22T20:10:14.976Z,97207.00
2023-05-22T20:12:42.467Z,97221.00
2023-05-22T20:15:15.071Z,97215.00
2023-05-22T20:17:47.815Z,97217.00
2023-05-22T20:20:15.618Z,97219.00
2023-05-22T20:22:42.912Z,97218.00
2023-05-22T20:25:10.989Z,97228.00
2023-05-22T20:27:38.409Z,97224.00
2023-05-22T20:30:07.998Z,97227.00
2023-05-22T20:32:35.364Z,97231.00
2023-05-22T20:35:02.740Z,97234.00
2023-05-22T20:37:30.057Z,97227.00
2023-05-22T20:40:04.472Z,97236.00
2023-05-22T20:42:32.068Z,97238.00
2023-05-22T20:44:59.467Z,97232.00
2023-05-22T20:47:26.957Z,97234.00
2023-05-22T20:49:54.470Z,97233.00
2023-05-22T20:52:22.532Z,97238.00
2023-05-22T20:54:49.947Z,97235.00
2023-05-22T20:57:17.331Z,97233.00
2023-05-22T20:59:44.631Z,97237.00
2023-05-22T21:02:12.050Z,97230.00
2023-05-22T21:04:39.460Z,97237.00
2023-05-22T21:07:07.122Z,97242.00
2023-05-22T21:09:35.306Z,97241.00
2023-05-22T21:12:04.161Z,97246.00
2023-05-22T21:14:31.523Z,97242.00
2023-05-22T21:16:58.969Z,97248.00
2023-05-22T21:19:26.684Z,97241.00
2023-05-22T21:21:54.226Z,97241.00
2023-05-22T21:24:22.103Z,97242.00
2023-05-22T21:26:50.126Z,97238.00
2023-05-22T21:29:17.655Z,97238.00
2023-05-22T21:31:45.139Z,97242.00
2023-05-22T21:34:15.294Z,97243.00
2023-05-22T21:36:43.889Z,97246.00
2023-05-22T21:39:11.296Z,97239.00
2023-05-22T21:41:38.659Z,97233.00
2023-05-22T21:44:05.979Z,97233.00
2023-05-22T21:46:33.407Z,97224.00
2023-05-22T21:49:03.275Z,97240.00
2023-05-22T21:51:32.499Z,97235.00
2023-05-22T21:53:59.936Z,97235.00
2023-05-22T21:56:28.831Z,97234.00
2023-05-22T21:58:56.562Z,97229.00
2023-05-22T22:01:24.470Z,97227.00
2023-05-22T22:03:52.115Z,97220.00
2023-05-22T22:06:19.550Z,97219.00
2023-05-22T22:08:47.472Z,97230.00
2023-05-22T22:11:14.862Z,97224.00
2023-05-22T22:13:42.296Z,97227.00
2023-05-22T22:16:09.728Z,97231.00
2023-05-22T22:18:37.443Z,97222.00
2023-05-22T22:21:06.201Z,97219.00
2023-05-22T22:23:34.500Z,97215.00
2023-05-22T22:26:01.911Z,97233.00
2023-05-22T22:28:29.369Z,97224.00
2023-05-22T22:30:57.650Z,97219.00
2023-05-22T22:33:25.415Z,97230.00
2023-05-22T22:35:53.720Z,97232.00
2023-05-22T22:38:21.624Z,97226.00
2023-05-22T22:40:49.281Z,97234.00
2023-05-22T22:43:16.642Z,97246.00
2023-05-22T22:45:44.097Z,97242.00
2023-05-22T22:48:11.489Z,97240.00
2023-05-22T22:50:39.087Z,97247.00
2023-05-22T22:53:06.940Z,97243.00
2023-05-22T22:55:35.104Z,97246.00
2023-05-22T22:58:02.748Z,97244.00
2023-05-22T23:00:30.508Z,97248.00
2023-05-22T23:02:58.051Z,97246.00
2023-05-22T23:05:25.420Z,97240.00
2023-05-22T23:07:52.922Z,97235.00
2023-05-22T23:10:20.337Z,97242.00
2023-05-22T23:12:49.531Z,97240.00
2023-05-22T23:15:17.757Z,97234.00
2023-05-22T23:17:45.311Z,97237.00
2023-05-22T23:20:12.756Z,97247.00
2023-05-22T23:22:40.072Z,97244.00
2023-05-22T23:25:08.353Z,97243.00
2023-05-22T23:27:37.008Z,97240.00
2023-05-22T23:30:06.622Z,97235.00
2023-05-22T23:32:34.264Z,97241.00
2023-05-22T23:35:02.077Z,97236.00
2023-05-22T23:37:29.587Z,97231.00
2023-05-22T23:39:56.832Z,97219.00
2023-05-22T23:42:24.403Z,97224.00
2023-05-22T23:44:51.715Z,97220.00
2023-05-22T23:47:19.324Z,97215.00
2023-05-22T23:49:47.608Z,97220.00
2023-05-22T23:52:14.931Z,97214.00
2023-05-22T23:54:42.322Z,97219.00
2023-05-22T23:57:11.027Z,97208.00
2023-05-22T23:59:39.258Z,97207.00
